aviador You're here:

KAMN Decoded Metar

ALMA in MI, USA
Report Time2018-04-24 14:18:00
UTC Time2018-04-24 14:21:19
Flight Rules vfr VFR
Wind120° at 03 kt
W.Decomp.*RWY 09: 2.5 kt HW 1.7 kt RCW
RWY 18: 1.7 kt HW 2.5 kt LCW
W.Rank120° ranks 34
Current wind is below 120° avg. (5.4)
Visibility9999 m
Phenomena:N/A
Clouds:Overcast 035 Hf
Expected CloudBase > 1,200 ft AGL from Temp-Dew spread
Ceiling3,500 ft
Temp13°C (ISA -1)
Dew Point10°C (82% RH)
AAT12.0°C
QNH1020 hPa
Density Alt627 ft
Elevation755 ft
Report Wrong Elevation
Raw Report
METAR KAMN 241418Z AUTO 12003KT 10SM OVC035 13/10 A3012 RMK AO2
T01270100=

Extra information for KAMN:More info

Metar Taf Metar & Taf Last 4 Metars F.Rules Stats Wind Profile Meteogram Temp Stats Airport Information Weather charts Add Link Nearby VenuesMetar ALERT Operation Metar Decoded Social comments

AIRNAV info for KAMN